sensor_id;sensor_type;location;lat;lon;timestamp;temperature;humidity
22442;DHT22;11388;54.456;9.752;2023-09-19T00:04:59;18.60;99.90
22442;DHT22;11388;54.456;9.752;2023-09-19T00:07:29;18.70;99.90
22442;DHT22;11388;54.456;9.752;2023-09-19T00:09:57;18.70;99.90
22442;DHT22;11388;54.456;9.752;2023-09-19T00:12:23;18.70;99.90
22442;DHT22;11388;54.456;9.752;2023-09-19T00:14:49;18.70;99.90
22442;DHT22;11388;54.456;9.752;2023-09-19T00:17:18;18.70;99.90
22442;DHT22;11388;54.456;9.752;2023-09-19T00:20:22;18.70;99.90
22442;DHT22;11388;54.456;9.752;2023-09-19T00:23:11;18.70;99.90
22442;DHT22;11388;54.456;9.752;2023-09-19T00:25:37;18.70;99.90
22442;DHT22;11388;54.456;9.752;2023-09-19T00:28:04;18.60;99.90
22442;DHT22;11388;54.456;9.752;2023-09-19T00:30:39;18.60;99.90
22442;DHT22;11388;54.456;9.752;2023-09-19T00:33:27;18.40;99.90
22442;DHT22;11388;54.456;9.752;2023-09-19T00:35:56;18.10;99.90
22442;DHT22;11388;54.456;9.752;2023-09-19T00:38:22;17.70;99.90
22442;DHT22;11388;54.456;9.752;2023-09-19T00:40:52;17.60;99.90
22442;DHT22;11388;54.456;9.752;2023-09-19T00:43:22;17.50;99.90
22442;DHT22;11388;54.456;9.752;2023-09-19T00:45:51;17.50;99.90
22442;DHT22;11388;54.456;9.752;2023-09-19T00:48:18;17.50;99.90
22442;DHT22;11388;54.456;9.752;2023-09-19T00:50:46;17.40;99.90
22442;DHT22;11388;54.456;9.752;2023-09-19T00:53:17;17.40;99.90
22442;DHT22;11388;54.456;9.752;2023-09-19T00:55:45;17.20;99.90
22442;DHT22;11388;54.456;9.752;2023-09-19T00:58:11;17.20;99.90
22442;DHT22;11388;54.456;9.752;2023-09-19T01:00:37;17.10;99.90
22442;DHT22;11388;54.456;9.752;2023-09-19T01:03:04;17.10;99.90
22442;DHT22;11388;54.456;9.752;2023-09-19T01:05:34;17.10;99.90
22442;DHT22;11388;54.456;9.752;2023-09-19T01:08:01;17.20;99.90
22442;DHT22;11388;54.456;9.752;2023-09-19T01:10:27;17.20;99.90
22442;DHT22;11388;54.456;9.752;2023-09-19T01:18:11;17.30;99.90
22442;DHT22;11388;54.456;9.752;2023-09-19T01:32:05;17.20;99.90
22442;DHT22;11388;54.456;9.752;2023-09-19T01:34:55;17.20;99.90
22442;DHT22;11388;54.456;9.752;2023-09-19T01:37:30;17.20;99.90
22442;DHT22;11388;54.456;9.752;2023-09-19T01:40:08;17.30;99.90
22442;DHT22;11388;54.456;9.752;2023-09-19T01:52:02;17.30;99.90
22442;DHT22;11388;54.456;9.752;2023-09-19T01:54:36;17.20;99.90
22442;DHT22;11388;54.456;9.752;2023-09-19T01:57:09;17.20;99.90
22442;DHT22;11388;54.456;9.752;2023-09-19T01:59:42;17.20;99.90
22442;DHT22;11388;54.456;9.752;2023-09-19T02:02:09;17.20;99.90
22442;DHT22;11388;54.456;9.752;2023-09-19T02:04:36;17.20;99.90
22442;DHT22;11388;54.456;9.752;2023-09-19T02:07:02;17.20;99.90
22442;DHT22;11388;54.456;9.752;2023-09-19T02:09:28;17.10;99.90
22442;DHT22;11388;54.456;9.752;2023-09-19T02:11:54;17.00;99.90
22442;DHT22;11388;54.456;9.752;2023-09-19T02:14:21;17.00;99.90
22442;DHT22;11388;54.456;9.752;2023-09-19T02:16:47;17.00;99.90
22442;DHT22;11388;54.456;9.752;2023-09-19T02:19:15;17.00;99.90
22442;DHT22;11388;54.456;9.752;2023-09-19T02:24:18;16.90;99.90
22442;DHT22;11388;54.456;9.752;2023-09-19T02:26:44;16.90;99.90
22442;DHT22;11388;54.456;9.752;2023-09-19T02:29:19;16.90;99.90
22442;DHT22;11388;54.456;9.752;2023-09-19T02:31:44;16.90;99.90
22442;DHT22;11388;54.456;9.752;2023-09-19T02:34:11;16.90;99.90
22442;DHT22;11388;54.456;9.752;2023-09-19T02:36:40;16.90;99.90
22442;DHT22;11388;54.456;9.752;2023-09-19T02:39:06;16.80;99.90
22442;DHT22;11388;54.456;9.752;2023-09-19T02:41:36;16.80;99.90
22442;DHT22;11388;54.456;9.752;2023-09-19T02:44:02;16.90;99.90
22442;DHT22;11388;54.456;9.752;2023-09-19T02:46:31;16.80;99.90
22442;DHT22;11388;54.456;9.752;2023-09-19T02:48:57;16.80;99.90
22442;DHT22;11388;54.456;9.752;2023-09-19T02:51:22;16.70;99.90
22442;DHT22;11388;54.456;9.752;2023-09-19T02:53:49;16.70;99.90
22442;DHT22;11388;54.456;9.752;2023-09-19T02:56:15;16.60;99.90
22442;DHT22;11388;54.456;9.752;2023-09-19T02:58:41;16.60;99.90
22442;DHT22;11388;54.456;9.752;2023-09-19T03:01:11;16.60;99.90
22442;DHT22;11388;54.456;9.752;2023-09-19T03:03:37;16.60;99.90
22442;DHT22;11388;54.456;9.752;2023-09-19T03:06:05;16.60;99.90
22442;DHT22;11388;54.456;9.752;2023-09-19T03:08:34;16.60;99.90
22442;DHT22;11388;54.456;9.752;2023-09-19T03:11:03;16.40;99.90
22442;DHT22;11388;54.456;9.752;2023-09-19T03:13:34;14.90;99.90
22442;DHT22;11388;54.456;9.752;2023-09-19T03:16:05;14.30;99.90
22442;DHT22;11388;54.456;9.752;2023-09-19T03:18:35;14.00;99.90
22442;DHT22;11388;54.456;9.752;2023-09-19T03:21:00;13.80;99.90
22442;DHT22;11388;54.456;9.752;2023-09-19T03:23:27;13.60;99.90
22442;DHT22;11388;54.456;9.752;2023-09-19T03:25:54;13.30;99.90
22442;DHT22;11388;54.456;9.752;2023-09-19T03:28:20;13.20;99.90
22442;DHT22;11388;54.456;9.752;2023-09-19T03:31:06;13.20;99.90
22442;DHT22;11388;54.456;9.752;2023-09-19T03:33:32;13.20;99.90
22442;DHT22;11388;54.456;9.752;2023-09-19T03:36:00;13.70;99.90
22442;DHT22;11388;54.456;9.752;2023-09-19T03:38:27;13.50;99.90
22442;DHT22;11388;54.456;9.752;2023-09-19T03:40:54;13.50;99.90
22442;DHT22;11388;54.456;9.752;2023-09-19T03:43:25;13.60;99.90
22442;DHT22;11388;54.456;9.752;2023-09-19T03:45:52;13.30;99.90
22442;DHT22;11388;54.456;9.752;2023-09-19T03:48:22;13.40;99.90
22442;DHT22;11388;54.456;9.752;2023-09-19T03:50:50;13.70;99.90
22442;DHT22;11388;54.456;9.752;2023-09-19T03:53:19;13.50;99.90
22442;DHT22;11388;54.456;9.752;2023-09-19T03:55:47;13.70;99.90
22442;DHT22;11388;54.456;9.752;2023-09-19T03:58:16;13.70;99.90
22442;DHT22;11388;54.456;9.752;2023-09-19T04:00:55;13.70;99.90
22442;DHT22;11388;54.456;9.752;2023-09-19T04:03:29;13.80;99.90
22442;DHT22;11388;54.456;9.752;2023-09-19T04:06:03;13.80;99.90
22442;DHT22;11388;54.456;9.752;2023-09-19T04:08:43;14.00;99.90
22442;DHT22;11388;54.456;9.752;2023-09-19T04:11:33;13.90;99.90
22442;DHT22;11388;54.456;9.752;2023-09-19T04:14:14;14.00;99.90
22442;DHT22;11388;54.456;9.752;2023-09-19T04:16:51;14.10;99.90
22442;DHT22;11388;54.456;9.752;2023-09-19T04:19:28;14.10;99.90
22442;DHT22;11388;54.456;9.752;2023-09-19T04:22:06;14.00;99.90
22442;DHT22;11388;54.456;9.752;2023-09-19T04:24:48;14.10;99.90
22442;DHT22;11388;54.456;9.752;2023-09-19T04:27:28;14.00;99.90
22442;DHT22;11388;54.456;9.752;2023-09-19T04:29:57;14.10;99.90
22442;DHT22;11388;54.456;9.752;2023-09-19T04:32:49;14.00;99.90
22442;DHT22;11388;54.456;9.752;2023-09-19T04:35:23;14.10;99.90
22442;DHT22;11388;54.456;9.752;2023-09-19T04:37:54;14.00;99.90
22442;DHT22;11388;54.456;9.752;2023-09-19T04:40:26;14.00;99.90
22442;DHT22;11388;54.456;9.752;2023-09-19T04:42:57;14.00;99.90
22442;DHT22;11388;54.456;9.752;2023-09-19T04:45:27;14.00;99.90
22442;DHT22;11388;54.456;9.752;2023-09-19T04:47:58;13.80;99.90
22442;DHT22;11388;54.456;9.752;2023-09-19T04:50:30;13.80;99.90
22442;DHT22;11388;54.456;9.752;2023-09-19T04:53:01;13.90;99.90
22442;DHT22;11388;54.456;9.752;2023-09-19T04:55:58;13.90;99.90
22442;DHT22;11388;54.456;9.752;2023-09-19T04:58:26;13.90;99.90
22442;DHT22;11388;54.456;9.752;2023-09-19T05:03:56;13.80;99.90
22442;DHT22;11388;54.456;9.752;2023-09-19T05:06:40;13.90;99.90
22442;DHT22;11388;54.456;9.752;2023-09-19T05:09:42;13.90;99.90
22442;DHT22;11388;54.456;9.752;2023-09-19T05:12:34;13.90;99.90
22442;DHT22;11388;54.456;9.752;2023-09-19T05:15:17;13.80;99.90
22442;DHT22;11388;54.456;9.752;2023-09-19T05:17:53;13.80;99.90
22442;DHT22;11388;54.456;9.752;2023-09-19T05:20:23;13.70;99.90
22442;DHT22;11388;54.456;9.752;2023-09-19T05:23:13;13.60;99.90
22442;DHT22;11388;54.456;9.752;2023-09-19T05:25:39;13.50;99.90
22442;DHT22;11388;54.456;9.752;2023-09-19T05:28:09;13.20;99.90
22442;DHT22;11388;54.456;9.752;2023-09-19T05:30:40;13.20;99.90
22442;DHT22;11388;54.456;9.752;2023-09-19T05:33:08;13.50;99.90
22442;DHT22;11388;54.456;9.752;2023-09-19T05:35:35;13.30;99.90
22442;DHT22;11388;54.456;9.752;2023-09-19T05:38:25;13.10;99.90
22442;DHT22;11388;54.456;9.752;2023-09-19T05:41:15;13.70;99.90
22442;DHT22;11388;54.456;9.752;2023-09-19T05:44:25;12.40;99.90
22442;DHT22;11388;54.456;9.752;2023-09-19T10:08:39;17.10;99.90
22442;DHT22;11388;54.456;9.752;2023-09-19T10:11:42;17.20;99.90
22442;DHT22;11388;54.456;9.752;2023-09-19T10:25:51;17.40;99.90
22442;DHT22;11388;54.456;9.752;2023-09-19T10:28:33;17.30;99.90
22442;DHT22;11388;54.456;9.752;2023-09-19T10:38:01;17.50;99.90
22442;DHT22;11388;54.456;9.752;2023-09-19T10:40:41;17.60;99.90
22442;DHT22;11388;54.456;9.752;2023-09-19T10:43:20;17.70;99.90
22442;DHT22;11388;54.456;9.752;2023-09-19T10:52:43;17.70;99.90
22442;DHT22;11388;54.456;9.752;2023-09-19T10:55:29;17.70;99.90
22442;DHT22;11388;54.456;9.752;2023-09-19T11:01:11;17.60;99.90
22442;DHT22;11388;54.456;9.752;2023-09-19T11:07:09;17.80;99.90
22442;DHT22;11388;54.456;9.752;2023-09-19T11:09:51;17.70;99.90
22442;DHT22;11388;54.456;9.752;2023-09-19T11:16:22;17.70;99.90
22442;DHT22;11388;54.456;9.752;2023-09-19T11:19:01;17.70;99.90
22442;DHT22;11388;54.456;9.752;2023-09-19T11:24:56;18.10;99.90
22442;DHT22;11388;54.456;9.752;2023-09-19T11:27:36;18.00;99.90
22442;DHT22;11388;54.456;9.752;2023-09-19T11:30:48;18.00;99.90
22442;DHT22;11388;54.456;9.752;2023-09-19T11:33:37;18.00;99.90
22442;DHT22;11388;54.456;9.752;2023-09-19T11:39:30;18.10;99.90
22442;DHT22;11388;54.456;9.752;2023-09-19T11:48:34;18.30;99.90
22442;DHT22;11388;54.456;9.752;2023-09-19T11:51:24;18.30;99.90
22442;DHT22;11388;54.456;9.752;2023-09-19T11:54:16;18.30;99.90
22442;DHT22;11388;54.456;9.752;2023-09-19T11:56:49;18.20;99.90
22442;DHT22;11388;54.456;9.752;2023-09-19T12:03:02;18.30;99.90
22442;DHT22;11388;54.456;9.752;2023-09-19T12:05:35;18.40;99.90
22442;DHT22;11388;54.456;9.752;2023-09-19T12:08:15;18.60;99.90
22442;DHT22;11388;54.456;9.752;2023-09-19T12:10:56;18.70;99.90
22442;DHT22;11388;54.456;9.752;2023-09-19T12:13:35;18.90;99.90
22442;DHT22;11388;54.456;9.752;2023-09-19T12:16:30;18.90;99.90
22442;DHT22;11388;54.456;9.752;2023-09-19T12:19:38;18.80;99.90
22442;DHT22;11388;54.456;9.752;2023-09-19T12:32:10;19.20;99.90
22442;DHT22;11388;54.456;9.752;2023-09-19T12:34:56;19.10;99.90
22442;DHT22;11388;54.456;9.752;2023-09-19T12:37:47;19.20;99.90
22442;DHT22;11388;54.456;9.752;2023-09-19T12:40:33;19.10;99.90
22442;DHT22;11388;54.456;9.752;2023-09-19T12:43:43;19.10;99.90
22442;DHT22;11388;54.456;9.752;2023-09-19T12:46:28;18.80;99.90
22442;DHT22;11388;54.456;9.752;2023-09-19T16:51:44;17.80;99.90
22442;DHT22;11388;54.456;9.752;2023-09-19T16:54:27;17.90;99.90
22442;DHT22;11388;54.456;9.752;2023-09-19T16:59:55;17.90;99.90
22442;DHT22;11388;54.456;9.752;2023-09-19T17:02:41;18.00;99.90
22442;DHT22;11388;54.456;9.752;2023-09-19T17:05:16;18.00;99.90
22442;DHT22;11388;54.456;9.752;2023-09-19T17:07:52;18.10;99.90
22442;DHT22;11388;54.456;9.752;2023-09-19T17:10:18;18.20;99.90
22442;DHT22;11388;54.456;9.752;2023-09-19T17:13:10;18.30;99.90
22442;DHT22;11388;54.456;9.752;2023-09-19T17:15:58;18.30;99.90
22442;DHT22;11388;54.456;9.752;2023-09-19T17:18:57;18.30;99.90
22442;DHT22;11388;54.456;9.752;2023-09-19T17:31:23;18.40;99.90
22442;DHT22;11388;54.456;9.752;2023-09-19T18:40:26;17.70;99.90
22442;DHT22;11388;54.456;9.752;2023-09-19T18:43:26;17.70;99.90
22442;DHT22;11388;54.456;9.752;2023-09-19T19:33:21;17.90;99.90
22442;DHT22;11388;54.456;9.752;2023-09-19T19:52:58;17.70;99.90
22442;DHT22;11388;54.456;9.752;2023-09-19T20:02:19;17.60;99.90
22442;DHT22;11388;54.456;9.752;2023-09-19T20:04:47;17.60;99.90
22442;DHT22;11388;54.456;9.752;2023-09-19T20:07:41;17.60;99.90
22442;DHT22;11388;54.456;9.752;2023-09-19T20:10:32;17.60;99.90
22442;DHT22;11388;54.456;9.752;2023-09-19T20:13:48;17.60;99.90
22442;DHT22;11388;54.456;9.752;2023-09-19T20:16:45;17.60;99.90
22442;DHT22;11388;54.456;9.752;2023-09-19T20:36:22;17.70;99.90
22442;DHT22;11388;54.456;9.752;2023-09-19T20:39:21;17.70;99.90
22442;DHT22;11388;54.456;9.752;2023-09-19T20:45:29;17.80;99.90
22442;DHT22;11388;54.456;9.752;2023-09-19T20:58:28;17.70;99.90
22442;DHT22;11388;54.456;9.752;2023-09-19T21:02:09;17.80;99.90
22442;DHT22;11388;54.456;9.752;2023-09-19T21:26:51;17.80;99.90
22442;DHT22;11388;54.456;9.752;2023-09-19T21:38:36;17.80;99.90
22442;DHT22;11388;54.456;9.752;2023-09-19T21:57:31;17.70;99.90
22442;DHT22;11388;54.456;9.752;2023-09-19T22:07:30;17.60;99.90
22442;DHT22;11388;54.456;9.752;2023-09-19T22:10:17;17.60;99.90
22442;DHT22;11388;54.456;9.752;2023-09-19T22:13:05;17.60;99.90
22442;DHT22;11388;54.456;9.752;2023-09-19T22:32:53;17.60;99.90
22442;DHT22;11388;54.456;9.752;2023-09-19T22:49:26;17.60;99.90
22442;DHT22;11388;54.456;9.752;2023-09-19T23:16:59;17.60;99.90
22442;DHT22;11388;54.456;9.752;2023-09-19T23:20:06;17.60;99.90
22442;DHT22;11388;54.456;9.752;2023-09-19T23:29:44;17.60;99.90
22442;DHT22;11388;54.456;9.752;2023-09-19T23:36:15;17.70;99.90
22442;DHT22;11388;54.456;9.752;2023-09-19T23:42:25;17.70;99.90
22442;DHT22;11388;54.456;9.752;2023-09-19T23:52:08;17.70;99.90
22442;DHT22;11388;54.456;9.752;2023-09-19T23:58:57;17.70;99.90
